Time;durP1;ratioP1;P1;durP2;ratioP2;P2;SDS_P1;SDS_P2;PMS_P1;PMS_P2;Temp;Humidity;BMP_temperature;BMP_pressure;BME280_temperature;BME280_humidity;BME280_pressure;Samples;Min_cycle;Max_cycle;Signal;HPM_P1;HPM_P2
2022/03/15 00:00:43;;;;;;;3.27;2.27;;;;;;;;;;4905583;29;20507;-89
2022/03/15 00:03:10;;;;;;;9.97;3.87;;;;;;;;;;4902321;29;20953;-88
2022/03/15 00:05:40;;;;;;;6.60;3.03;;;;;;;;;;4892430;29;20552;-87
2022/03/15 00:08:09;;;;;;;6.60;2.97;;;;;;;13.00;nan;100522.03;4902644;29;20464;-86
2022/03/15 00:10:37;;;;;;;6.20;3.40;;;;;;;13.02;nan;100519.09;4887074;29;20438;-87
2022/03/15 00:13:07;;;;;;;7.37;3.00;;;;;;;13.01;nan;100521.00;4898562;29;20500;-87
2022/03/15 00:15:39;;;;;;;5.60;2.13;;;;;;;12.98;nan;100513.19;4887373;29;20457;-86
2022/03/15 00:18:10;;;;;;;4.93;2.60;;;;;;;13.00;nan;100513.81;4902506;29;20819;-87
2022/03/15 00:20:38;;;;;;;3.70;1.73;;;;;;;12.99;nan;100506.63;4887293;29;20463;-87
2022/03/15 00:23:06;;;;;;;4.77;1.73;;;;;;;12.98;nan;100504.94;4887348;29;20453;-86
2022/03/15 00:25:36;;;;;;;3.30;1.30;;;;;;;13.01;nan;100517.41;4872082;29;20506;-86
2022/03/15 00:28:04;;;;;;;3.57;1.27;;;;;;;12.98;nan;100506.84;4887235;29;20460;-87
2022/03/15 00:30:32;;;;;;;3.37;1.50;;;;;;;13.01;nan;100507.28;4871628;29;20481;-87
2022/03/15 00:33:03;;;;;;;5.10;1.27;;;;;;;13.03;nan;100504.31;4872022;29;20449;-86
2022/03/15 00:35:32;;;;;;;5.30;2.17;;;;;;;13.05;nan;100507.69;4887434;29;20528;-86
2022/03/15 00:37:59;;;;;;;2.37;1.40;;;;;;;13.07;nan;100498.19;4900851;29;20460;-86
2022/03/15 00:40:30;;;;;;;2.80;1.67;;;;;;;13.09;nan;100495.19;4868705;29;20982;-88
2022/03/15 00:42:58;;;;;;;2.93;1.30;;;;;;;13.10;nan;100484.00;4884041;29;20458;-87
2022/03/15 00:45:30;;;;;;;2.80;1.20;;;;;;;13.11;nan;100465.66;4899315;29;20461;-88
2022/03/15 00:48:09;;;;;;;3.20;1.23;;;;;;;13.16;nan;100470.53;4900553;29;20450;-86
2022/03/15 00:50:39;;;;;;;1.80;0.93;;;;;;;13.12;nan;100457.19;4915045;29;20465;-88
2022/03/15 00:53:08;;;;;;;8.27;1.90;;;;;;;13.12;nan;100448.13;4898842;29;20882;-88
2022/03/15 00:55:38;;;;;;;3.07;1.70;;;;;;;13.14;nan;100449.59;4868834;29;20485;-87
2022/03/15 00:58:05;;;;;;;4.40;1.40;;;;;;;13.10;nan;100440.09;4866807;29;22174;-87
2022/03/15 01:00:36;;;;;;;2.80;1.50;;;;;;;13.13;nan;100450.66;4879239;29;20458;-87
2022/03/15 01:03:05;;;;;;;2.00;1.27;;;;;;;13.10;nan;100434.63;4883462;29;20453;-87
2022/03/15 01:05:33;;;;;;;3.57;1.70;;;;;;;13.01;nan;100419.47;4884141;29;20525;-88
2022/03/15 01:08:02;;;;;;;4.50;1.83;;;;;;;13.12;nan;100446.22;4868371;29;20458;-87
2022/03/15 01:10:30;;;;;;;4.90;2.00;;;;;;;13.07;nan;100432.34;4868327;29;20480;-88
2022/03/15 01:13:00;;;;;;;3.00;2.40;;;;;;;13.08;nan;100434.00;4898406;29;20462;-87
2022/03/15 01:15:35;;;;;;;5.10;1.53;;;;;;;13.03;nan;100439.31;4898681;29;20902;-88
2022/03/15 01:18:03;;;;;;;5.40;1.70;;;;;;;13.04;nan;100435.50;4898754;29;20464;-87
2022/03/15 01:20:34;;;;;;;4.83;2.13;;;;;;;13.07;nan;100437.81;4896492;29;20526;-87
2022/03/15 01:23:02;;;;;;;2.30;1.50;;;;;;;13.05;nan;100437.19;4899142;29;20937;-88
2022/03/15 01:25:30;;;;;;;5.20;1.67;;;;;;;13.02;nan;100434.88;4899933;29;20445;-87
2022/03/15 01:28:08;;;;;;;2.90;1.63;;;;;;;13.03;nan;100443.97;4899489;29;20566;-86
2022/03/15 01:30:38;;;;;;;3.40;1.53;;;;;;;13.01;nan;100435.94;4883270;29;20991;-88
2022/03/15 01:33:06;;;;;;;3.10;1.80;;;;;;;12.99;nan;100434.47;4881646;29;20466;-88
2022/03/15 01:35:42;;;;;;;4.40;2.00;;;;;;;12.97;nan;100433.84;4899536;29;20477;-87
2022/03/15 01:38:11;;;;;;;2.50;1.53;;;;;;;12.94;nan;100440.59;4898821;29;20449;-87
2022/03/15 01:40:39;;;;;;;3.10;1.70;;;;;;;12.93;nan;100438.91;4899275;29;20458;-86
2022/03/15 01:43:08;;;;;;;3.00;1.40;;;;;;;12.93;nan;100438.91;4867451;29;20506;-87
2022/03/15 01:45:37;;;;;;;4.60;1.87;;;;;;;12.92;nan;100442.72;4867900;29;20989;-87
2022/03/15 01:48:06;;;;;;;8.37;1.77;;;;;;;12.83;nan;100422.09;4898381;29;20975;-87
2022/03/15 01:50:35;;;;;;;4.33;2.00;;;;;;;12.91;nan;100443.78;4867092;29;20468;-87
2022/03/15 01:53:04;;;;;;;5.53;1.93;;;;;;;12.90;nan;100442.09;4897820;29;20460;-87
2022/03/15 01:55:38;;;;;;;3.40;2.00;;;;;;;12.88;nan;100436.00;4882333;29;20490;-87
2022/03/15 01:58:05;;;;;;;6.33;2.53;;;;;;;12.85;nan;100436.44;4867253;29;20461;-86
2022/03/15 02:00:34;;;;;;;3.90;2.13;;;;;;;12.84;nan;100428.41;4897438;29;20516;-88
2022/03/15 02:03:09;;;;;;;7.67;2.30;;;;;;;12.83;nan;100427.56;4882944;29;20457;-88
2022/03/15 02:05:39;;;;;;;4.27;2.20;;;;;;;12.84;nan;100418.28;4898039;29;20561;-89
2022/03/15 02:08:14;;;;;;;4.57;2.10;;;;;;;12.85;nan;100427.34;4882816;29;20449;-88
2022/03/15 02:10:42;;;;;;;5.53;2.53;;;;;;;12.84;nan;100429.25;4897933;29;20461;-87
2022/03/15 02:13:10;;;;;;;5.70;2.50;;;;;;;12.80;nan;100423.34;4867068;29;20456;-87
2022/03/15 02:15:38;;;;;;;5.07;2.70;;;;;;;12.84;nan;100428.41;4882781;29;20548;-86
2022/03/15 02:18:07;;;;;;;6.93;2.80;;;;;;;12.79;nan;100407.97;4871691;29;20544;-86
2022/03/15 02:20:37;;;;;;;6.10;3.20;;;;;;;12.80;nan;100409.66;4916207;29;20554;-87
2022/03/15 02:23:14;;;;;;;10.80;3.67;;;;;;;12.72;nan;100396.16;4897554;29;20960;-87
2022/03/15 02:25:43;;;;;;;4.10;2.47;;;;;;;12.66;nan;100382.50;4882224;29;20469;-87
2022/03/15 02:28:19;;;;;;;6.03;3.00;;;;;;;12.76;nan;100393.84;4886387;29;20972;-86
2022/03/15 02:30:47;;;;;;;8.03;2.70;;;;;;;12.75;nan;100389.41;4897033;29;21018;-87
2022/03/15 02:33:15;;;;;;;6.33;2.00;;;;;;;12.72;nan;100392.56;4897148;29;20464;-86
2022/03/15 02:35:43;;;;;;;7.97;2.50;;;;;;;12.76;nan;100402.06;4897603;29;20972;-86
2022/03/15 02:38:11;;;;;;;8.10;2.60;;;;;;;12.74;nan;100401.44;4881685;29;20521;-87
2022/03/15 02:40:46;;;;;;;7.73;2.53;;;;;;;12.70;nan;100397.47;4896949;29;20461;-87
2022/03/15 02:43:14;;;;;;;3.37;2.00;;;;;;;12.66;nan;100387.97;4873585;29;20453;-87
2022/03/15 02:45:42;;;;;;;3.97;2.00;;;;;;;12.71;nan;100401.84;4897448;29;20442;-87
2022/03/15 02:48:15;;;;;;;3.13;1.70;;;;;;;12.74;nan;100410.50;4881912;29;20828;-86
2022/03/15 02:50:46;;;;;;;4.70;2.00;;;;;;;12.72;nan;100409.88;4881809;29;20454;-87
2022/03/15 02:53:16;;;;;;;2.90;1.50;;;;;;;12.71;nan;100419.16;4881478;29;20957;-87
2022/03/15 02:55:46;;;;;;;4.00;1.80;;;;;;;12.70;nan;100412.00;4897243;29;20481;-88
2022/03/15 02:58:14;;;;;;;2.70;1.60;;;;;;;12.67;nan;100400.63;4897250;29;20449;-86
2022/03/15 03:00:46;;;;;;;2.70;1.30;;;;;;;12.71;nan;100407.34;4878972;29;21056;-87
2022/03/15 03:03:15;;;;;;;6.77;1.70;;;;;;;12.66;nan;100398.94;4896752;29;20466;-87
2022/03/15 03:05:45;;;;;;;3.53;1.77;;;;;;;12.67;nan;100397.91;4879065;29;20485;-88
2022/03/15 03:08:16;;;;;;;6.27;2.17;;;;;;;12.66;nan;100393.47;4870338;29;20464;-87
2022/03/15 03:10:45;;;;;;;6.90;1.97;;;;;;;12.55;nan;100386.72;4889865;29;20457;-89
2022/03/15 03:13:13;;;;;;;3.73;2.20;;;;;;;12.62;nan;100392.22;4881836;29;20453;-88
2022/03/15 03:15:44;;;;;;;2.67;1.20;;;;;;;12.57;nan;100390.09;4896799;29;20492;-86
2022/03/15 03:18:12;;;;;;;4.73;1.27;;;;;;;12.53;nan;100391.59;4896624;29;20464;-87
2022/03/15 03:20:40;;;;;;;3.03;1.80;;;;;;;12.57;nan;100394.75;4881496;29;20521;-87
2022/03/15 03:23:18;;;;;;;9.07;2.10;;;;;;;12.51;nan;100384.66;4881472;29;20452;-89
2022/03/15 03:25:46;;;;;;;3.87;2.17;;;;;;;12.51;nan;100388.22;4896767;29;20458;-87
2022/03/15 03:28:24;;;;;;;13.13;1.50;;;;;;;12.52;nan;100392.66;4881226;29;20497;-88
2022/03/15 03:30:52;;;;;;;3.97;1.47;;;;;;;12.50;nan;100393.94;4897645;29;21070;-86
2022/03/15 03:33:20;;;;;;;2.00;1.30;;;;;;;12.48;nan;100391.41;4881945;29;20446;-87
2022/03/15 03:35:51;;;;;;;6.70;1.70;;;;;;;12.47;nan;100391.63;4881121;29;20998;-90
2022/03/15 03:38:27;;;;;;;3.40;1.40;;;;;;;12.44;nan;100388.25;4882498;29;20971;-87
2022/03/15 03:40:56;;;;;;;6.13;1.40;;;;;;;12.37;nan;100381.94;4866213;29;20458;-87
2022/03/15 03:43:32;;;;;;;2.50;1.37;;;;;;;12.41;nan;100391.41;4896345;29;20474;-87
2022/03/15 03:46:02;;;;;;;5.10;1.50;;;;;;;12.38;nan;100380.88;4884987;29;20449;-86
2022/03/15 03:48:30;;;;;;;3.60;1.30;;;;;;;12.37;nan;100392.91;4897245;29;20827;-86
2022/03/15 03:50:59;;;;;;;10.63;2.20;;;;;;;12.36;nan;100393.94;4888611;29;20975;-88
2022/03/15 03:53:26;;;;;;;4.27;1.60;;;;;;;12.30;nan;100383.03;4865486;29;20457;-87
2022/03/15 03:55:54;;;;;;;2.17;1.20;;;;;;;12.32;nan;100387.22;4880951;29;20482;-87
2022/03/15 03:58:23;;;;;;;7.87;1.63;;;;;;;12.29;nan;100371.22;4896639;29;20838;-87
2022/03/15 04:00:51;;;;;;;4.73;1.70;;;;;;;12.27;nan;100367.84;4865997;29;20465;-86
2022/03/15 04:03:24;;;;;;;2.30;1.27;;;;;;;12.22;nan;100358.59;4881310;29;20899;-87
2022/03/15 04:05:54;;;;;;;4.40;1.20;;;;;;;12.22;nan;100367.66;4896084;29;20450;-87
2022/03/15 04:08:24;;;;;;;1.83;1.27;;;;;;;12.20;nan;100371.66;4865860;29;20574;-87
2022/03/15 04:10:52;;;;;;;2.67;1.53;;;;;;;12.17;nan;100367.44;4895366;29;20468;-86
2022/03/15 04:13:23;;;;;;;1.87;1.30;;;;;;;12.13;nan;100360.69;4898707;29;20493;-88
2022/03/15 04:15:52;;;;;;;2.40;1.37;;;;;;;12.10;nan;100364.72;4899851;29;20479;-87
2022/03/15 04:18:22;;;;;;;3.73;1.50;;;;;;;12.13;nan;100368.06;4899777;29;20453;-87
2022/03/15 04:20:51;;;;;;;4.77;1.63;;;;;;;12.14;nan;100376.06;4899949;29;20822;-87
2022/03/15 04:23:19;;;;;;;4.03;1.60;;;;;;;12.12;nan;100375.47;4901000;29;20447;-87
2022/03/15 04:25:47;;;;;;;4.23;1.40;;;;;;;12.14;nan;100389.78;4893028;29;20445;-87
2022/03/15 04:28:14;;;;;;;4.67;1.93;;;;;;;12.12;nan;100388.34;4869195;29;20460;-87
2022/03/15 04:30:43;;;;;;;3.70;1.47;;;;;;;12.11;nan;100387.47;4899423;29;20485;-87
2022/03/15 04:33:16;;;;;;;2.17;1.40;;;;;;;12.07;nan;100389.81;4869348;29;20456;-86
2022/03/15 04:35:45;;;;;;;3.90;1.20;;;;;;;12.08;nan;100382.44;4899167;29;20479;-86
2022/03/15 04:38:13;;;;;;;3.97;1.50;;;;;;;12.11;nan;100382.00;4868742;29;20461;-86
2022/03/15 04:40:44;;;;;;;2.60;1.40;;;;;;;12.11;nan;100371.06;4899135;29;20468;-87
2022/03/15 04:43:12;;;;;;;4.73;1.70;;;;;;;12.06;nan;100371.69;4898995;29;20461;-88
2022/03/15 04:45:42;;;;;;;4.43;1.30;;;;;;;12.10;nan;100377.59;4884400;29;20458;-87
2022/03/15 04:48:09;;;;;;;2.60;1.33;;;;;;;12.12;nan;100386.44;4898900;29;20450;-87
2022/03/15 04:50:38;;;;;;;5.57;1.70;;;;;;;12.12;nan;100385.59;4823908;29;20524;-87
2022/03/15 04:53:08;;;;;;;5.00;1.60;;;;;;;12.05;nan;100374.63;4839769;29;20465;-87
2022/03/15 04:55:36;;;;;;;5.23;1.57;;;;;;;12.14;nan;100398.00;4806021;29;20490;-88
2022/03/15 04:58:04;;;;;;;3.90;1.50;;;;;;;12.13;nan;100396.31;4799222;29;20468;-88
2022/03/15 05:00:46;;;;;;;18.53;1.83;;;;;;;12.14;nan;100398.00;4822031;29;20518;-87
2022/03/15 05:03:16;;;;;;;11.43;1.70;;;;;;;12.17;nan;100400.31;4823752;29;20456;-87
2022/03/15 05:05:52;;;;;;;5.10;1.70;;;;;;;12.16;nan;100401.38;4805120;29;20462;-87
2022/03/15 05:08:27;;;;;;;5.97;1.67;;;;;;;12.14;nan;100397.16;4858905;29;20460;-88
2022/03/15 05:11:07;;;;;;;5.57;1.77;;;;;;;12.18;nan;100407.47;4879044;29;21031;-88
2022/03/15 05:13:40;;;;;;;7.63;2.30;;;;;;;12.20;nan;100399.88;4902760;29;20525;-87
2022/03/15 05:16:18;;;;;;;4.13;1.77;;;;;;;12.19;nan;100403.69;4883262;29;21027;-87
2022/03/15 05:18:52;;;;;;;6.30;1.87;;;;;;;12.20;nan;100399.88;4884059;29;20469;-88
2022/03/15 05:21:24;;;;;;;5.43;1.80;;;;;;;12.20;nan;100399.88;4883518;29;20981;-88
2022/03/15 05:23:53;;;;;;;10.20;2.37;;;;;;;12.24;nan;100403.06;4883483;29;20454;-88
2022/03/15 05:26:21;;;;;;;7.40;2.30;;;;;;;12.24;nan;100403.91;4876164;29;20442;-88
2022/03/15 05:28:49;;;;;;;4.67;2.00;;;;;;;12.24;nan;100398.41;4868443;29;20471;-87
2022/03/15 05:31:20;;;;;;;4.40;1.93;;;;;;;12.24;nan;100406.63;4883193;29;20485;-87
2022/03/15 05:33:48;;;;;;;6.30;2.43;;;;;;;12.20;nan;100397.16;4868558;29;20446;-88
2022/03/15 05:36:17;;;;;;;3.23;1.40;;;;;;;12.26;nan;100410.00;4867854;29;20477;-87
2022/03/15 05:38:45;;;;;;;3.60;1.73;;;;;;;12.25;nan;100419.28;4883567;29;20944;-88
2022/03/15 05:41:13;;;;;;;5.77;2.10;;;;;;;12.26;nan;100415.50;4898435;29;20454;-87
2022/03/15 05:43:54;;;;;;;3.70;1.87;;;;;;;12.27;nan;100422.66;4898261;29;20450;-87
2022/03/15 05:46:28;;;;;;;3.60;1.90;;;;;;;12.26;nan;100420.13;4869120;29;20461;-89
2022/03/15 05:48:57;;;;;;;2.03;1.27;;;;;;;12.25;nan;100423.91;4864819;29;20450;-87
2022/03/15 05:51:27;;;;;;;5.37;1.43;;;;;;;12.26;nan;100429.19;4891227;29;20458;-87
2022/03/15 05:53:55;;;;;;;2.73;1.47;;;;;;;12.28;nan;100429.81;4867270;29;20504;-88
2022/03/15 05:56:24;;;;;;;4.07;1.43;;;;;;;12.27;nan;100432.78;4882364;29;20489;-88
2022/03/15 05:58:52;;;;;;;2.40;1.30;;;;;;;12.25;nan;100434.88;4897616;29;20462;-86
2022/03/15 06:01:22;;;;;;;3.30;1.73;;;;;;;12.29;nan;100439.72;4897903;29;20839;-87
2022/03/15 06:03:53;;;;;;;3.47;1.47;;;;;;;12.28;nan;100432.56;4897445;29;20465;-88
2022/03/15 06:06:31;;;;;;;3.90;1.40;;;;;;;12.28;nan;100434.47;4897963;29;20454;-87
2022/03/15 06:09:00;;;;;;;2.97;1.43;;;;;;;12.27;nan;100433.63;4898360;29;20444;-87
2022/03/15 06:11:32;;;;;;;3.77;1.70;;;;;;;12.29;nan;100449.84;4912360;29;20461;-87
2022/03/15 06:14:00;;;;;;;2.17;1.37;;;;;;;12.22;nan;100425.19;4898643;29;20457;-88
2022/03/15 06:16:29;;;;;;;2.73;1.40;;;;;;;12.27;nan;100441.84;4898777;29;20474;-87
2022/03/15 06:18:57;;;;;;;4.10;1.47;;;;;;;12.20;nan;100431.91;4868776;29;20461;-87
2022/03/15 06:21:24;;;;;;;1.77;1.27;;;;;;;12.22;nan;100447.09;4898930;29;20458;-86
2022/03/15 06:23:54;;;;;;;2.60;1.70;;;;;;;12.24;nan;100447.72;4882549;29;20500;-88
2022/03/15 06:26:35;;;;;;;3.90;1.77;;;;;;;12.25;nan;100446.69;4884282;29;20453;-88
2022/03/15 06:29:03;;;;;;;2.20;1.53;;;;;;;12.23;nan;100436.97;4882450;29;20949;-88
2022/03/15 06:31:33;;;;;;;3.10;1.40;;;;;;;12.24;nan;100450.47;4882112;29;21015;-87
2022/03/15 06:34:04;;;;;;;2.00;1.43;;;;;;;12.26;nan;100445.63;4897502;29;20481;-87
2022/03/15 06:36:34;;;;;;;3.00;1.70;;;;;;;12.22;nan;100436.13;4881148;29;20477;-87
2022/03/15 06:39:05;;;;;;;6.23;2.00;;;;;;;12.21;nan;100433.63;4882560;29;20449;-86
2022/03/15 06:41:38;;;;;;;4.00;1.83;;;;;;;12.20;nan;100440.97;4897295;29;20459;-87
2022/03/15 06:44:08;;;;;;;3.33;1.73;;;;;;;12.25;nan;100454.06;4910934;29;20449;-87
2022/03/15 06:46:35;;;;;;;7.50;1.87;;;;;;;12.23;nan;100459.75;4873181;29;20461;-87
2022/03/15 06:49:09;;;;;;;2.40;1.50;;;;;;;12.22;nan;100460.81;4867215;29;20449;-87
2022/03/15 06:51:38;;;;;;;2.57;1.43;;;;;;;12.23;nan;100462.50;4881650;29;20487;-87
2022/03/15 06:54:07;;;;;;;7.40;1.60;;;;;;;12.20;nan;100462.06;4867061;29;20450;-87
2022/03/15 06:56:39;;;;;;;2.60;1.60;;;;;;;12.22;nan;100463.53;4881844;29;20478;-88
2022/03/15 06:59:07;;;;;;;5.37;2.10;;;;;;;12.15;nan;100462.69;4898070;29;20465;-86
2022/03/15 07:01:35;;;;;;;3.37;1.93;;;;;;;12.20;nan;100470.28;4888527;29;20968;-87
2022/03/15 07:04:03;;;;;;;4.40;1.80;;;;;;;12.17;nan;100468.81;4887736;29;20451;-87
2022/03/15 07:06:31;;;;;;;2.30;1.37;;;;;;;12.17;nan;100482.50;4917227;29;20448;-86
2022/03/15 07:09:00;;;;;;;2.20;1.50;;;;;;;12.20;nan;100473.88;4900821;29;20448;-87
2022/03/15 07:11:28;;;;;;;3.50;1.30;;;;;;;12.19;nan;100491.34;4916373;29;20449;-87
2022/03/15 07:13:57;;;;;;;2.47;1.97;;;;;;;12.07;nan;100477.47;4916135;29;20491;-87
2022/03/15 07:16:25;;;;;;;3.13;1.87;;;;;;;12.15;nan;100479.13;4878269;29;20486;-87
2022/03/15 07:18:53;;;;;;;3.37;1.90;;;;;;;12.15;nan;100484.59;4896620;29;20446;-87
2022/03/15 07:21:21;;;;;;;2.70;1.67;;;;;;;12.13;nan;100486.72;4885750;29;20450;-87
2022/03/15 07:23:52;;;;;;;4.00;1.80;;;;;;;12.22;nan;100514.75;4897253;29;20460;-87
2022/03/15 07:26:20;;;;;;;2.27;1.80;;;;;;;12.25;nan;100509.69;4867126;29;20430;-87
2022/03/15 07:28:48;;;;;;;2.50;1.60;;;;;;;12.23;nan;100514.53;4896053;29;20446;-87
2022/03/15 07:31:17;;;;;;;4.13;1.57;;;;;;;12.28;nan;100522.16;4897116;29;20518;-87
2022/03/15 07:33:44;;;;;;;2.73;1.30;;;;;;;12.31;nan;100532.69;4896139;29;20944;-88
2022/03/15 07:36:22;;;;;;;2.60;1.47;;;;;;;12.31;nan;100538.16;4884022;29;20505;-87
2022/03/15 07:38:50;;;;;;;3.80;1.50;;;;;;;12.30;nan;100523.63;4878152;29;20460;-87
2022/03/15 07:41:21;;;;;;;2.63;1.60;;;;;;;12.27;nan;100518.56;4880609;29;20465;-87
2022/03/15 07:43:50;;;;;;;1.97;1.50;;;;;;;12.34;nan;100532.25;4896315;29;20497;-87
2022/03/15 07:46:19;;;;;;;2.10;1.27;;;;;;;12.38;nan;100539.00;4880824;29;20861;-87
2022/03/15 07:48:49;;;;;;;1.93;1.17;;;;;;;12.35;nan;100528.44;4883736;29;20484;-88
2022/03/15 07:51:18;;;;;;;3.50;1.77;;;;;;;12.37;nan;100532.66;4900190;29;20523;-87
2022/03/15 07:53:46;;;;;;;1.83;1.33;;;;;;;12.38;nan;100531.63;4899298;29;20437;-88
2022/03/15 07:56:13;;;;;;;2.20;1.17;;;;;;;12.48;nan;100546.81;4884344;29;20469;-87
2022/03/15 07:58:50;;;;;;;1.83;0.90;;;;;;;12.48;nan;100535.84;4883576;29;20447;-89
2022/03/15 08:01:19;;;;;;;1.70;1.00;;;;;;;12.48;nan;100530.38;4883756;29;21018;-87
2022/03/15 08:03:48;;;;;;;4.07;0.97;;;;;;;12.52;nan;100537.09;4899806;29;20437;-87
2022/03/15 08:06:16;;;;;;;3.20;1.33;;;;;;;12.50;nan;100531.00;4901064;29;20807;-87
2022/03/15 08:08:44;;;;;;;2.20;1.00;;;;;;;12.47;nan;100525.94;4899796;29;20434;-88
2022/03/15 08:11:12;;;;;;;1.67;1.37;;;;;;;12.53;nan;100552.47;4899979;29;20430;-88
2022/03/15 08:13:43;;;;;;;1.80;1.20;;;;;;;12.58;nan;100567.25;4883709;29;20464;-88
2022/03/15 08:16:13;;;;;;;1.80;1.33;;;;;;;12.56;nan;100569.34;4898502;29;20481;-87
2022/03/15 08:18:41;;;;;;;2.13;1.13;;;;;;;12.57;nan;100572.94;4884166;29;20453;-87
2022/03/15 08:21:11;;;;;;;1.73;1.20;;;;;;;12.58;nan;100569.16;4868267;29;20974;-88
2022/03/15 08:23:43;;;;;;;1.67;1.03;;;;;;;12.64;nan;100584.75;4895637;29;20441;-88
2022/03/15 08:26:13;;;;;;;1.67;0.90;;;;;;;12.64;nan;100576.53;4883466;29;20460;-88
2022/03/15 08:28:43;;;;;;;4.07;1.20;;;;;;;12.62;nan;100589.59;4887576;29;20960;-88
2022/03/15 08:31:11;;;;;;;5.90;1.60;;;;;;;12.60;nan;100580.75;4886380;29;20497;-88
2022/03/15 08:33:39;;;;;;;1.63;1.10;;;;;;;12.64;nan;100588.34;4846327;29;20490;-88
2022/03/15 08:36:07;;;;;;;2.93;1.20;;;;;;;12.62;nan;100592.34;4848581;29;20480;-88
2022/03/15 08:38:35;;;;;;;1.60;0.90;;;;;;;12.60;nan;100580.75;4862561;29;20454;-88
2022/03/15 08:41:04;;;;;;;1.67;0.93;;;;;;;12.63;nan;100583.91;4847870;29;20837;-88
2022/03/15 08:43:33;;;;;;;2.27;1.00;;;;;;;12.70;nan;100595.72;4863687;29;20537;-88
2022/03/15 08:46:03;;;;;;;2.10;1.10;;;;;;;12.73;nan;100586.22;4863761;29;20450;-87
2022/03/15 08:48:32;;;;;;;13.73;1.23;;;;;;;12.76;nan;100578.41;4848013;29;20458;-88
2022/03/15 08:51:01;;;;;;;1.80;1.17;;;;;;;12.83;nan;100586.66;4847480;29;20458;-88
2022/03/15 08:53:32;;;;;;;2.50;0.80;;;;;;;12.84;nan;100580.09;4893197;29;20810;-86
2022/03/15 08:56:02;;;;;;;1.37;0.90;;;;;;;12.90;nan;100586.63;4898604;29;20485;-86
2022/03/15 08:58:30;;;;;;;1.17;0.60;;;;;;;12.91;nan;100600.13;4898279;29;20454;-86
2022/03/15 09:01:01;;;;;;;1.80;0.90;;;;;;;12.93;nan;100611.72;4899147;29;20500;-86
2022/03/15 09:03:43;;;;;;;2.43;0.80;;;;;;;12.87;nan;100611.75;4883717;29;20895;-88
2022/03/15 09:06:11;;;;;;;1.80;0.83;;;;;;;12.97;nan;100623.97;4898588;29;20441;-88
2022/03/15 09:08:39;;;;;;;2.03;0.90;;;;;;;12.98;nan;100628.41;4900265;29;20434;-88
2022/03/15 09:11:09;;;;;;;1.50;0.90;;;;;;;13.03;nan;100627.78;4899284;29;20454;-89
2022/03/15 09:13:37;;;;;;;1.40;0.97;;;;;;;13.09;nan;100635.97;4895977;29;20464;-95
2022/03/15 09:16:12;;;;;;;5.77;1.73;;;;;;;13.11;nan;100633.88;4882811;29;20557;-91
2022/03/15 09:18:43;;;;;;;7.53;4.63;;;;;;;13.17;nan;100621.22;4884817;29;20857;-90
2022/03/15 09:21:13;;;;;;;3.23;1.90;;;;;;;13.33;nan;100641.88;4889685;29;20453;-92
2022/03/15 09:23:41;;;;;;;3.00;1.50;;;;;;;13.42;nan;100646.94;4882823;29;20476;-91
2022/03/15 09:26:13;;;;;;;4.13;1.70;;;;;;;13.50;nan;100654.09;4882343;29;20458;-91
2022/03/15 09:28:47;;;;;;;2.50;1.63;;;;;;;13.52;nan;100651.13;4884027;29;20453;-93
2022/03/15 09:31:16;;;;;;;3.70;2.47;;;;;;;13.53;nan;100642.69;4868429;29;20481;-90
2022/03/15 09:33:44;;;;;;;95.27;63.00;;;;;;;13.66;nan;100628.91;4865272;29;20456;-91
2022/03/15 09:36:13;;;;;;;81.37;51.73;;;;;;;13.82;nan;100624.84;4882218;29;20492;-90
2022/03/15 09:38:42;;;;;;;10.17;6.77;;;;;;;13.98;nan;100626.25;4868192;29;20532;-90
2022/03/15 09:41:10;;;;;;;3.60;1.70;;;;;;;14.17;nan;100652.78;4867205;29;20469;-92
2022/03/15 09:43:41;;;;;;;8.40;6.17;;;;;;;14.21;nan;100645.78;4871601;29;20468;-90
2022/03/15 09:46:09;;;;;;;3.70;2.60;;;;;;;14.24;nan;100645.31;4898385;29;20452;-92
2022/03/15 09:48:59;;;;;;;6.63;3.53;;;;;;;14.35;nan;100663.88;4867850;29;20447;-89
2022/03/15 09:51:32;;;;;;;14.23;6.13;;;;;;;14.36;nan;100659.22;4885023;29;20455;-89
2022/03/15 09:54:00;;;;;;;12.13;5.40;;;;;;;14.43;nan;100662.81;4879715;29;20481;-89
2022/03/15 09:56:28;;;;;;;5.73;2.70;;;;;;;14.46;nan;100665.94;4864695;29;20478;-89
2022/03/15 09:58:56;;;;;;;9.73;7.20;;;;;;;14.51;nan;100673.53;4864572;29;20451;-89
2022/03/15 10:05:05;;;;;;;2.37;1.27;;;;;;;14.54;nan;100677.75;4880979;29;20437;-89
2022/03/15 10:07:34;;;;;;;8.27;4.10;;;;;;;14.51;nan;100674.38;4864519;29;20446;-89
2022/03/15 10:10:05;;;;;;;47.47;15.53;;;;;;;14.43;nan;100666.38;4864147;29;20844;-89
2022/03/15 10:12:34;;;;;;;46.40;12.20;;;;;;;14.38;nan;100671.69;4849492;29;20456;-91
2022/03/15 10:15:22;;;;;;;245.37;42.43;;;;;;;14.42;nan;100681.22;4864356;29;20454;-89
2022/03/15 10:17:53;;;;;;;430.97;68.13;;;;;;;14.40;nan;100683.34;4863968;29;20494;-91
2022/03/15 10:20:28;;;;;;;57.87;12.13;;;;;;;14.42;nan;100680.38;4864455;29;20864;-89
2022/03/15 10:23:00;;;;;;;26.97;7.23;;;;;;;14.43;nan;100682.88;4850622;29;20456;-89
2022/03/15 10:25:33;;;;;;;17.87;6.20;;;;;;;14.48;nan;100669.31;4850276;29;20446;-89
2022/03/15 10:28:03;;;;;;;9.33;4.37;;;;;;;14.58;nan;100684.50;4849075;29;20461;-90
2022/03/15 10:30:31;;;;;;;24.97;8.93;;;;;;;14.61;nan;100678.56;4868393;29;20485;-89
2022/03/15 10:32:59;;;;;;;11.27;3.60;;;;;;;14.67;nan;100684.00;4856775;29;20890;-89
2022/03/15 10:35:29;;;;;;;6.87;3.37;;;;;;;14.63;nan;100674.50;4864133;29;20482;-89
2022/03/15 10:37:57;;;;;;;8.57;2.97;;;;;;;14.59;nan;100664.19;4864072;29;20489;-91
2022/03/15 10:40:51;;;;;;;2.67;2.10;;;;;;;14.76;nan;100670.84;4863868;29;20450;-89
2022/03/15 10:43:23;;;;;;;6.00;2.37;;;;;;;14.85;nan;100669.47;4879161;29;20458;-90
2022/03/15 10:45:58;;;;;;;7.93;2.43;;;;;;;14.93;nan;100676.63;4864123;29;20455;-90
2022/03/15 10:48:30;;;;;;;5.27;2.70;;;;;;;14.92;nan;100675.78;4864556;29;20443;-89
2022/03/15 10:50:59;;;;;;;3.30;2.13;;;;;;;15.05;nan;100685.84;4864052;29;20458;-89
2022/03/15 10:53:40;;;;;;;3.20;2.20;;;;;;;15.11;nan;100680.28;4879239;29;20454;-91
2022/03/15 10:56:22;;;;;;;5.97;2.33;;;;;;;15.18;nan;100675.56;4865045;29;20462;-89
2022/03/15 10:58:52;;;;;;;7.00;2.30;;;;;;;15.28;nan;100679.72;4863466;29;20458;-90
2022/03/15 11:01:21;;;;;;;3.77;1.87;;;;;;;15.38;nan;100682.81;4863765;29;20954;-89
2022/03/15 11:03:57;;;;;;;4.97;2.37;;;;;;;15.39;nan;100682.56;4863951;29;20458;-91
2022/03/15 11:06:30;;;;;;;7.77;3.20;;;;;;;15.29;nan;100664.88;4878924;29;20450;-90
2022/03/15 11:08:59;;;;;;;6.83;2.70;;;;;;;15.16;nan;100661.19;4878690;29;20446;-90
2022/03/15 11:11:27;;;;;;;6.17;2.20;;;;;;;15.03;nan;100661.28;4848660;29;20459;-91
2022/03/15 11:14:00;;;;;;;6.10;1.80;;;;;;;14.88;nan;100652.53;4848491;29;20451;-90
2022/03/15 11:16:30;;;;;;;8.63;2.53;;;;;;;14.85;nan;100651.06;4848630;29;20443;-89
2022/03/15 11:18:59;;;;;;;13.93;9.70;;;;;;;14.93;nan;100638.94;4848404;29;20454;-89
2022/03/15 11:21:30;;;;;;;15.50;7.70;;;;;;;15.25;nan;100636.09;4848603;29;20506;-90
2022/03/15 11:23:58;;;;;;;11.83;5.23;;;;;;;15.61;nan;100630.66;4863541;29;20447;-90
2022/03/15 11:26:31;;;;;;;7.13;2.60;;;;;;;15.97;nan;100646.31;4848849;29;20586;-89
2022/03/15 11:29:01;;;;;;;7.23;4.07;;;;;;;16.16;nan;100633.38;4863625;29;20799;-89
2022/03/15 11:35:23;;;;;;;9.20;4.90;;;;;;;16.09;nan;100632.59;4879829;29;20398;-88
2022/03/15 11:37:52;;;;;;;8.57;3.37;;;;;;;16.10;nan;100631.53;4863391;29;20514;-87
2022/03/15 11:40:20;;;;;;;3.23;2.30;;;;;;;16.09;nan;100633.44;4863379;29;20438;-87
2022/03/15 11:42:50;;;;;;;7.13;2.37;;;;;;;16.08;nan;100619.88;4863528;29;20446;-88
2022/03/15 11:45:33;;;;;;;5.97;2.70;;;;;;;16.25;nan;100640.22;4878424;29;20454;-88
2022/03/15 11:48:08;;;;;;;7.10;2.07;;;;;;;16.28;nan;100637.00;4863174;29;20870;-87
2022/03/15 11:50:56;;;;;;;8.40;4.80;;;;;;;16.27;nan;100624.28;4879389;29;20455;-87
2022/03/15 11:53:52;;;;;;;2.50;1.37;;;;;;;16.19;nan;100630.13;4878738;29;20540;-86
2022/03/15 11:56:44;;;;;;;2.20;1.30;;;;;;;16.14;nan;100632.75;4878514;29;20455;-88
2022/03/15 11:59:12;;;;;;;6.50;2.90;;;;;;;16.05;nan;100623.09;4878406;29;20454;-87
2022/03/15 12:01:47;;;;;;;6.20;1.50;;;;;;;15.99;nan;100622.09;4862534;29;20459;-87
2022/03/15 12:04:16;;;;;;;3.63;1.40;;;;;;;15.97;nan;100617.94;4863325;29;20494;-86